Time;durP1;ratioP1;P1;durP2;ratioP2;P2;SDS_P1;SDS_P2;PMS_P1;PMS_P2;Temp;Humidity;BMP_temperature;BMP_pressure;BME280_temperature;BME280_humidity;BME280_pressure;Samples;Min_cycle;Max_cycle;Signal;HPM_P1;HPM_P2
2021/04/16 00:00:35;;;;;;;13.72;9.68;;;;;;;5.59;92.12;100440.90;1640373;85;25770;-80
2021/04/16 00:03:01;;;;;;;13.22;9.55;;;;;;;5.59;92.02;100440.90;1641014;85;30835;-80
2021/04/16 00:05:27;;;;;;;14.50;9.27;;;;;;;5.55;91.95;100437.76;1638292;85;26261;-80
2021/04/16 00:07:53;;;;;;;13.40;9.83;;;;;;;5.52;91.92;100437.54;1638913;85;25828;-80
2021/04/16 00:10:25;;;;;;;15.15;9.90;;;;;;;5.49;91.92;100436.51;1638929;85;26481;-80
2021/04/16 00:12:51;;;;;;;13.50;8.85;;;;;;;5.48;91.89;100435.33;1639598;85;25744;-80
2021/04/16 00:15:21;;;;;;;15.95;9.80;;;;;;;5.46;91.88;100438.06;1641672;85;25772;-80
2021/04/16 00:17:47;;;;;;;16.67;9.93;;;;;;;5.46;91.88;100438.55;1640684;85;25791;-80
2021/04/16 00:20:18;;;;;;;13.97;9.73;;;;;;;5.48;91.95;100440.06;1640796;85;25669;-80
2021/04/16 00:22:44;;;;;;;15.05;9.55;;;;;;;5.49;91.96;100433.10;1642409;85;25754;-80
2021/04/16 00:25:15;;;;;;;12.47;9.00;;;;;;;5.47;91.88;100434.52;1641032;85;25395;-80
2021/04/16 00:27:40;;;;;;;13.68;9.30;;;;;;;5.46;91.86;100426.41;1640853;85;25832;-81
2021/04/16 00:30:10;;;;;;;14.73;10.03;;;;;;;5.46;91.95;100422.52;1637406;85;25947;-81
2021/04/16 00:32:36;;;;;;;14.55;9.93;;;;;;;5.48;91.93;100423.66;1640048;85;25858;-81
2021/04/16 00:35:06;;;;;;;13.93;9.70;;;;;;;5.47;91.87;100418.96;1640712;85;25793;-80
2021/04/16 00:37:32;;;;;;;14.93;10.30;;;;;;;5.46;91.88;100417.33;1639044;85;26299;-81
2021/04/16 00:39:58;;;;;;;11.50;8.30;;;;;;;5.47;91.92;100416.84;1638208;85;25736;-81
2021/04/16 00:42:24;;;;;;;14.25;10.13;;;;;;;5.47;91.98;100412.96;1640339;85;25805;-81
2021/04/16 00:44:51;;;;;;;15.93;9.13;;;;;;;5.43;91.92;100415.00;1640905;85;25841;-81
2021/04/16 00:47:21;;;;;;;13.78;9.38;;;;;;;5.44;91.96;100420.52;1638522;85;25918;-81
2021/04/16 00:49:51;;;;;;;;;;;;;;;5.47;91.99;100415.07;1640979;85;25813;-81
2021/04/16 00:52:30;;;;;;;14.20;9.00;;;;;;;5.45;91.89;100407.89;1638785;85;25752;-81
2021/04/16 00:54:57;;;;;;;14.93;8.80;;;;;;;5.47;91.93;100403.41;1641213;85;25966;-81
2021/04/16 00:57:23;;;;;;;15.48;9.05;;;;;;;5.47;91.78;100406.00;1639535;85;25898;-81
2021/04/16 00:59:54;;;;;;;14.23;8.90;;;;;;;5.48;91.71;100408.11;1638824;85;25702;-81
2021/04/16 01:02:21;;;;;;;16.00;9.28;;;;;;;5.48;91.67;100405.52;1639695;85;25311;-81
2021/04/16 01:04:47;;;;;;;15.05;9.60;;;;;;;5.46;91.67;100406.96;1641829;85;25973;-81
2021/04/16 01:07:14;;;;;;;14.43;8.70;;;;;;;5.45;91.61;100403.19;1640980;85;25923;-81
2021/04/16 01:09:41;;;;;;;14.40;8.33;;;;;;;5.45;91.60;100403.19;1642209;85;26312;-81
2021/04/16 01:12:10;;;;;;;11.40;8.13;;;;;;;5.43;91.60;100403.34;1639119;85;25835;-81
2021/04/16 01:14:41;;;;;;;15.25;8.18;;;;;;;5.44;91.60;100401.56;1617830;86;25751;-81
2021/04/16 01:17:09;;;;;;;12.13;7.85;;;;;;;5.41;91.55;100396.16;1645075;85;25750;-81
2021/04/16 01:20:01;;;;;;;12.18;8.40;;;;;;;5.44;91.56;100393.30;1639496;85;25800;-81
2021/04/16 01:22:51;;;;;;;11.30;7.47;;;;;;;5.45;91.50;100396.71;1640300;85;25834;-81
2021/04/16 01:25:19;;;;;;;13.32;8.53;;;;;;;5.46;91.46;100386.70;1640387;85;33870;-81
2021/04/16 01:27:45;;;;;;;12.23;8.70;;;;;;;5.44;91.39;100384.72;1639975;85;25831;-81
2021/04/16 01:30:22;;;;;;;13.07;8.97;;;;;;;5.40;91.37;100382.87;1639039;85;26028;-81
2021/04/16 01:32:48;;;;;;;13.32;8.95;;;;;;;5.40;91.44;100376.39;1641193;85;25861;-81
2021/04/16 01:35:20;;;;;;;14.60;9.00;;;;;;;5.41;91.54;100378.02;1641520;85;25837;-81
2021/04/16 01:37:46;;;;;;;13.05;7.78;;;;;;;5.43;91.48;100381.76;1641064;85;25816;-81
2021/04/16 01:40:13;;;;;;;12.60;9.07;;;;;;;5.43;91.52;100382.61;1640798;85;25399;-81
2021/04/16 01:42:40;;;;;;;13.93;8.45;;;;;;;5.42;91.44;100375.76;1640980;85;25788;-82
2021/04/16 01:45:23;;;;;;;11.08;7.33;;;;;;;5.46;91.47;100375.86;1639812;85;25782;-81
2021/04/16 01:47:58;;;;;;;11.78;7.97;;;;;;;5.44;91.48;100375.64;1639537;85;25752;-80
2021/04/16 01:50:26;;;;;;;13.43;9.13;;;;;;;5.42;91.43;100378.83;1639918;85;25851;-80
2021/04/16 01:52:52;;;;;;;14.45;8.75;;;;;;;5.41;91.41;100375.91;1641090;85;25820;-80
2021/04/16 01:55:20;;;;;;;12.50;8.18;;;;;;;5.41;91.46;100370.25;1640666;85;25810;-80
2021/04/16 01:57:47;;;;;;;11.63;7.45;;;;;;;5.40;91.44;100369.91;1639372;85;26002;-80
2021/04/16 02:00:19;;;;;;;12.88;7.58;;;;;;;5.41;91.73;100375.91;1639868;85;25781;-80
2021/04/16 02:02:44;;;;;;;13.95;8.05;;;;;;;5.36;91.65;100365.11;1640980;86;25931;-81
2021/04/16 02:05:12;;;;;;;12.03;8.03;;;;;;;5.32;91.67;100371.85;1640888;85;25388;-76
2021/04/16 02:07:38;;;;;;;15.43;8.40;;;;;;;5.31;91.74;100366.79;1641408;85;25830;-76
2021/04/16 02:10:07;;;;;;;12.17;7.07;;;;;;;5.33;91.74;100368.78;1642868;85;25804;-76
2021/04/16 02:12:32;;;;;;;11.53;8.10;;;;;;;5.34;91.76;100363.45;1640081;85;25820;-76
2021/04/16 02:14:58;;;;;;;13.70;8.80;;;;;;;5.35;91.78;100363.00;1641648;85;26460;-76
2021/04/16 02:17:28;;;;;;;14.87;9.33;;;;;;;5.36;91.73;100364.62;1640972;85;25840;-76
2021/04/16 02:19:57;;;;;;;12.03;8.25;;;;;;;5.37;91.79;100362.85;1640779;85;25725;-76
2021/04/16 02:22:26;;;;;;;11.45;7.85;;;;;;;5.36;91.68;100361.22;1641421;85;25739;-76
2021/04/16 02:24:52;;;;;;;13.27;8.00;;;;;;;5.35;91.72;100356.52;1642321;85;25906;-76
2021/04/16 02:27:23;;;;;;;14.68;8.70;;;;;;;5.37;91.77;100361.55;1638316;85;25809;-76
2021/04/16 02:29:49;;;;;;;;;;;;;;;5.38;91.77;100353.66;1642113;85;26041;-76
2021/04/16 02:32:15;;;;;;;12.00;7.73;;;;;;;5.35;91.77;100357.81;1639006;85;25796;-76
2021/04/16 02:34:41;;;;;;;12.65;8.95;;;;;;;5.32;91.83;100352.42;1639365;85;25729;-76
2021/04/16 02:37:12;;;;;;;12.97;7.67;;;;;;;5.31;91.84;100355.94;1641672;85;25383;-76
2021/04/16 02:39:39;;;;;;;13.45;7.65;;;;;;;5.28;91.92;100354.91;1639637;85;25759;-80
2021/04/16 02:42:06;;;;;;;13.35;8.50;;;;;;;5.29;91.93;100363.50;1640095;85;25889;-80
2021/04/16 02:44:32;;;;;;;11.95;7.75;;;;;;;5.26;91.95;100361.98;1639883;85;25324;-80
2021/04/16 02:46:59;;;;;;;15.98;8.90;;;;;;;5.23;92.10;100359.66;1640765;85;25789;-80
2021/04/16 02:49:25;;;;;;;12.03;7.75;;;;;;;5.23;92.16;100357.07;1639257;85;25712;-80
2021/04/16 02:51:52;;;;;;;13.18;7.90;;;;;;;5.22;92.08;100353.33;1621829;86;25965;-80
2021/04/16 02:54:19;;;;;;;11.38;6.85;;;;;;;5.23;91.99;100353.19;1641213;85;25821;-80
2021/04/16 02:56:46;;;;;;;12.43;7.85;;;;;;;5.22;92.04;100358.52;1642990;85;25754;-81
2021/04/16 02:59:12;;;;;;;12.07;7.30;;;;;;;5.21;91.93;100357.70;1639327;85;26228;-80
2021/04/16 03:01:38;;;;;;;15.20;7.13;;;;;;;5.21;91.93;100355.11;1641651;85;25890;-80
2021/04/16 03:04:05;;;;;;;15.50;7.42;;;;;;;5.20;92.07;100359.92;1639889;85;26526;-80
2021/04/16 03:06:31;;;;;;;10.40;7.17;;;;;;;5.18;92.02;100361.00;1640210;85;25785;-80
2021/04/16 03:09:01;;;;;;;11.50;6.83;;;;;;;5.19;91.98;100362.66;1641944;85;25698;-80
2021/04/16 03:11:27;;;;;;;13.68;6.85;;;;;;;5.19;91.98;100358.78;1641285;85;25833;-80
2021/04/16 03:13:54;;;;;;;10.40;6.72;;;;;;;5.17;92.00;100351.60;1638144;85;25852;-80
2021/04/16 03:16:26;;;;;;;13.15;6.75;;;;;;;5.16;92.07;100355.16;1642177;85;26427;-80
2021/04/16 03:18:52;;;;;;;15.25;6.67;;;;;;;5.12;92.08;100350.20;1641288;85;25355;-80
2021/04/16 03:21:19;;;;;;;11.15;6.83;;;;;;;5.10;91.98;100349.54;1640217;85;25790;-80
2021/04/16 03:23:45;;;;;;;10.60;7.15;;;;;;;5.11;92.04;100348.58;1640574;85;25732;-80
2021/04/16 03:26:10;;;;;;;12.00;7.27;;;;;;;5.12;92.00;100354.09;1622676;85;25890;-80
2021/04/16 03:28:36;;;;;;;10.53;6.93;;;;;;;5.12;92.05;100353.28;1641653;85;25930;-80
2021/04/16 03:31:02;;;;;;;12.93;6.10;;;;;;;5.10;91.97;100348.70;1637271;85;25977;-80
2021/04/16 03:33:28;;;;;;;10.00;6.20;;;;;;;5.12;92.27;100348.09;1639041;85;25803;-80
2021/04/16 03:35:54;;;;;;;11.47;6.30;;;;;;;5.09;92.10;100348.36;1639941;85;25790;-80
2021/04/16 03:38:20;;;;;;;13.33;6.47;;;;;;;5.08;92.25;100342.37;1640268;85;25395;-80
2021/04/16 03:40:47;;;;;;;10.30;6.43;;;;;;;5.08;92.05;100348.03;1640183;85;25763;-80
2021/04/16 03:43:13;;;;;;;13.28;6.83;;;;;;;5.09;92.11;100347.88;1639282;85;25843;-80
2021/04/16 03:45:39;;;;;;;11.30;6.10;;;;;;;5.10;92.04;100350.84;1640483;85;25682;-80
2021/04/16 03:48:06;;;;;;;8.58;5.85;;;;;;;5.09;91.99;100349.17;1640279;85;25883;-80
2021/04/16 03:50:34;;;;;;;10.13;6.10;;;;;;;5.09;92.02;100345.77;1641624;85;25727;-80
2021/04/16 03:53:03;;;;;;;10.08;6.42;;;;;;;5.08;92.02;100346.25;1639124;85;26770;-80
2021/04/16 03:55:33;;;;;;;10.58;6.28;;;;;;;5.07;92.08;100348.95;1640007;85;25744;-80
2021/04/16 03:57:59;;;;;;;13.43;6.28;;;;;;;5.07;92.29;100354.98;1640615;85;26677;-80
2021/04/16 04:00:31;;;;;;;13.43;6.90;;;;;;;5.07;92.22;100356.73;1641316;85;25365;-80
2021/04/16 04:02:58;;;;;;;11.40;6.72;;;;;;;5.07;92.13;100355.44;1641449;85;25772;-80
2021/04/16 04:05:26;;;;;;;10.53;6.15;;;;;;;5.06;92.36;100359.80;1641993;85;25853;-80
2021/04/16 04:07:53;;;;;;;10.63;6.90;;;;;;;5.05;92.36;100355.58;1641124;85;25881;-80
2021/04/16 04:10:20;;;;;;;10.30;6.83;;;;;;;5.07;92.59;100354.14;1640906;85;25433;-80
2021/04/16 04:12:47;;;;;;;10.55;6.22;;;;;;;5.06;92.27;100355.10;1639237;85;25866;-80
2021/04/16 04:15:15;;;;;;;12.30;6.42;;;;;;;5.07;92.28;100358.02;1640608;85;25844;-80
2021/04/16 04:17:41;;;;;;;13.48;6.70;;;;;;;5.08;92.37;100363.09;1632461;86;26539;-80
2021/04/16 04:20:16;;;;;;;9.78;5.53;;;;;;;5.09;92.27;100366.02;1639945;85;25878;-79
2021/04/16 04:22:41;;;;;;;13.62;6.90;;;;;;;5.08;92.29;100360.50;1640892;85;25861;-80
2021/04/16 04:25:08;;;;;;;11.40;6.13;;;;;;;5.09;92.19;100361.31;1640844;85;26715;-80
2021/04/16 04:27:34;;;;;;;9.83;5.78;;;;;;;5.07;92.30;100359.32;1639909;85;25356;-80
2021/04/16 04:30:00;;;;;;;8.70;5.87;;;;;;;5.06;92.32;100364.16;1641127;85;25864;-80
2021/04/16 04:32:26;;;;;;;12.80;6.73;;;;;;;5.05;92.43;100362.05;1638949;85;25787;-80
2021/04/16 04:34:52;;;;;;;8.57;5.70;;;;;;;5.05;92.27;100358.66;1639059;85;34091;-80
2021/04/16 04:37:18;;;;;;;9.63;6.53;;;;;;;5.07;92.38;100359.32;1640445;85;25905;-80
2021/04/16 04:39:44;;;;;;;8.95;6.75;;;;;;;5.08;92.46;100360.98;1640865;85;25682;-80
2021/04/16 04:42:11;;;;;;;10.80;6.13;;;;;;;5.05;92.44;100356.88;1642746;85;26027;-80
2021/04/16 04:44:38;;;;;;;11.63;6.37;;;;;;;5.02;92.73;100358.88;1640076;85;26437;-80
2021/04/16 04:47:05;;;;;;;11.50;6.37;;;;;;;5.02;92.51;100361.02;1638872;85;25805;-80
2021/04/16 04:49:31;;;;;;;10.03;6.72;;;;;;;5.04;92.52;100359.10;1639877;85;25774;-80
2021/04/16 04:52:19;;;;;;;9.77;6.00;;;;;;;5.05;92.46;100359.95;1637990;85;25840;-80
2021/04/16 04:54:48;;;;;;;10.15;6.62;;;;;;;5.05;92.53;100354.77;1641071;85;25734;-81
2021/04/16 04:57:16;;;;;;;13.62;6.70;;;;;;;5.05;92.45;100358.17;1642414;85;25795;-80
2021/04/16 04:59:43;;;;;;;12.60;6.83;;;;;;;5.08;92.54;100354.50;1641171;85;26437;-80
2021/04/16 05:02:09;;;;;;;7.87;5.67;;;;;;;5.06;92.47;100352.51;1640063;85;25794;-81
2021/04/16 05:04:36;;;;;;;10.90;6.80;;;;;;;5.04;92.47;100358.28;1637866;85;25882;-81
2021/04/16 05:07:02;;;;;;;13.88;7.12;;;;;;;5.04;92.50;100350.03;1639618;85;26634;-81
2021/04/16 05:09:28;;;;;;;10.23;5.92;;;;;;;5.03;92.66;100349.70;1640274;85;25740;-80
2021/04/16 05:11:54;;;;;;;12.23;7.17;;;;;;;5.03;92.70;100345.81;1641132;85;26020;-81
2021/04/16 05:14:20;;;;;;;9.03;4.80;;;;;;;5.05;92.63;100354.77;1641350;85;26146;-81
2021/04/16 05:16:47;;;;;;;6.83;4.62;;;;;;;5.08;92.88;100350.14;1639539;85;25335;-80
2021/04/16 05:19:13;;;;;;;8.38;5.25;;;;;;;5.08;92.84;100350.14;1638555;85;26429;-81
2021/04/16 05:21:39;;;;;;;9.50;5.70;;;;;;;5.12;92.76;100346.80;1639074;85;25938;-81
2021/04/16 05:24:08;;;;;;;10.03;5.97;;;;;;;5.16;92.80;100349.49;1636498;85;25919;-80
2021/04/16 05:26:36;;;;;;;10.50;5.62;;;;;;;5.17;92.62;100347.72;1641133;85;25966;-80
2021/04/16 05:29:03;;;;;;;9.20;5.83;;;;;;;5.18;92.62;100350.64;1621557;85;25900;-81
2021/04/16 05:31:30;;;;;;;10.68;5.70;;;;;;;5.18;92.56;100348.05;1639503;85;25910;-81
2021/04/16 05:33:55;;;;;;;10.08;6.70;;;;;;;5.19;92.58;100348.41;1641419;85;25555;-81
2021/04/16 05:36:21;;;;;;;10.30;5.67;;;;;;;5.16;92.57;100351.27;1640370;85;26501;-80
2021/04/16 05:38:47;;;;;;;13.40;5.40;;;;;;;5.19;92.65;100353.11;1639986;85;25884;-80
2021/04/16 05:41:14;;;;;;;11.78;6.33;;;;;;;5.21;92.84;100355.56;1642973;85;25939;-81
2021/04/16 05:43:41;;;;;;;10.10;5.75;;;;;;;5.21;92.68;100350.38;1624625;86;56895;-80
2021/04/16 05:46:07;;;;;;;11.18;6.80;;;;;;;5.23;92.60;100351.89;1639268;85;25802;-81
2021/04/16 05:48:34;;;;;;;9.28;5.10;;;;;;;5.24;92.71;100347.07;1639907;85;25761;-81
2021/04/16 05:51:00;;;;;;;13.40;6.45;;;;;;;5.25;92.79;100347.41;1638274;85;25292;-81
2021/04/16 05:53:26;;;;;;;11.83;5.37;;;;;;;5.22;92.77;100348.16;1638138;85;25771;-81
2021/04/16 05:55:52;;;;;;;9.23;5.77;;;;;;;5.21;92.70;100344.75;1636816;85;25616;-81
2021/04/16 05:58:18;;;;;;;10.90;4.83;;;;;;;5.22;92.65;100345.56;1636364;85;25685;-80
2021/04/16 06:00:44;;;;;;;10.03;5.85;;;;;;;5.23;92.79;100348.48;1643541;85;25795;-81
2021/04/16 06:03:10;;;;;;;11.93;5.90;;;;;;;5.21;92.81;100351.67;1639023;85;25830;-81
2021/04/16 06:05:37;;;;;;;11.65;5.90;;;;;;;5.21;92.77;100343.90;1640534;85;25908;-81
2021/04/16 06:08:04;;;;;;;14.18;5.28;;;;;;;5.26;92.77;100346.92;1639885;85;25795;-81
2021/04/16 06:10:31;;;;;;;14.18;7.08;;;;;;;5.27;92.68;100344.21;1637273;85;25768;-80
2021/04/16 06:15:30;;;;;;;9.43;4.93;;;;;;;5.31;92.86;100342.17;1809451;77;26115;-79
2021/04/16 06:17:57;;;;;;;10.38;5.33;;;;;;;5.27;92.64;100340.81;1777152;78;25687;-79
2021/04/16 06:20:26;;;;;;;8.65;5.22;;;;;;;5.30;92.70;100340.55;1776758;78;25787;-79
2021/04/16 06:22:55;;;;;;;10.68;5.50;;;;;;;5.31;92.67;100342.17;1779617;78;26570;-79
2021/04/16 06:25:28;;;;;;;12.43;5.58;;;;;;;5.29;92.61;100338.88;1777737;78;25849;-80
2021/04/16 06:27:55;;;;;;;10.88;6.17;;;;;;;5.30;92.64;100340.55;1743829;78;25816;-81
2021/04/16 06:30:22;;;;;;;11.28;5.72;;;;;;;5.31;92.71;100340.88;1779225;79;25731;-80
2021/04/16 06:33:02;;;;;;;10.95;5.75;;;;;;;5.32;92.71;100338.65;1779689;78;25719;-81
2021/04/16 06:35:29;;;;;;;10.72;5.83;;;;;;;5.34;92.69;100341.91;1684345;83;25857;-81
2021/04/16 06:37:55;;;;;;;11.10;5.53;;;;;;;5.35;92.56;100342.27;1682814;83;25729;-81
2021/04/16 06:40:21;;;;;;;9.97;6.13;;;;;;;5.37;92.61;100348.11;1685500;83;26849;-81
2021/04/16 06:42:49;;;;;;;10.05;5.58;;;;;;;5.38;92.48;100345.89;1682440;83;25800;-81
2021/04/16 06:45:20;;;;;;;11.28;6.05;;;;;;;5.38;92.48;100352.37;1683584;83;25832;-81
2021/04/16 06:47:51;;;;;;;11.03;5.95;;;;;;;5.37;92.40;100349.41;1682594;83;25755;-80
2021/04/16 06:50:17;;;;;;;11.00;6.53;;;;;;;5.36;92.33;100346.48;1659454;83;25790;-80
2021/04/16 06:53:12;;;;;;;8.08;5.90;;;;;;;5.32;92.34;100342.53;1664097;84;25894;-78
2021/04/16 06:56:01;;;;;;;8.58;5.42;;;;;;;5.32;92.53;100339.46;1684368;83;25402;-79
2021/04/16 06:58:50;;;;;;;10.05;5.60;;;;;;;5.30;92.57;100347.83;1682468;82;25700;-79
2021/04/16 07:01:32;;;;;;;9.13;5.33;;;;;;;5.31;92.58;100348.65;1682326;83;25853;-80
2021/04/16 07:04:22;;;;;;;9.05;5.35;;;;;;;5.29;92.66;100349.25;1682970;83;25772;-75
2021/04/16 07:06:52;;;;;;;9.15;5.40;;;;;;;5.26;92.53;100352.92;1683963;83;25440;-78
2021/04/16 07:09:25;;;;;;;;;;;;;;;5.25;92.54;100344.81;1686146;83;25756;-79
2021/04/16 07:12:14;;;;;;;10.58;5.80;;;;;;;5.25;92.72;100349.99;1709854;78;25732;-80
2021/04/16 07:15:03;;;;;;;10.90;6.60;;;;;;;5.25;92.63;100347.41;1773767;78;25323;-78
2021/04/16 07:17:40;;;;;;;9.90;6.20;;;;;;;5.27;92.67;100349.40;1781529;78;25359;-80
2021/04/16 07:20:09;;;;;;;8.40;5.83;;;;;;;5.28;92.92;100352.32;1784037;78;25728;-80
2021/04/16 07:22:46;;;;;;;8.38;5.42;;;;;;;5.28;92.78;100346.33;1787036;78;25455;-80
2021/04/16 07:25:39;;;;;;;10.32;6.83;;;;;;;5.26;92.74;100359.88;1784073;78;26417;-75
2021/04/16 07:28:31;;;;;;;12.05;6.40;;;;;;;5.21;92.87;100352.52;1696796;82;25434;-80
2021/04/16 07:30:57;;;;;;;10.55;5.97;;;;;;;5.20;92.88;100348.27;1698283;83;25740;-78
2021/04/16 07:33:41;;;;;;;10.00;5.90;;;;;;;5.22;92.82;100349.45;1704497;83;25863;-75
2021/04/16 07:36:19;;;;;;;10.03;6.37;;;;;;;5.24;92.77;100348.36;1705159;83;25768;-78
2021/04/16 07:39:03;;;;;;;13.32;7.08;;;;;;;5.28;92.83;100352.80;1701018;83;25800;-80
2021/04/16 07:41:45;;;;;;;13.03;7.75;;;;;;;5.28;92.73;100346.33;1699413;82;25377;-80
2021/04/16 07:44:22;;;;;;;11.25;6.83;;;;;;;5.30;92.81;100340.55;1702623;83;26534;-78
2021/04/16 07:46:59;;;;;;;12.40;6.55;;;;;;;5.34;92.72;100335.42;1701107;83;25366;-75
2021/04/16 07:49:33;;;;;;;10.53;6.08;;;;;;;5.35;92.61;100340.97;1702208;83;25618;-76
2021/04/16 07:52:21;;;;;;;14.50;7.10;;;;;;;5.37;92.53;100342.12;1704904;82;26414;-75
2021/04/16 07:55:19;;;;;;;9.65;5.85;;;;;;;5.38;92.59;100355.44;1695451;82;25517;-79
2021/04/16 07:58:13;;;;;;;13.35;7.08;;;;;;;5.39;92.58;100348.00;1704761;82;25866;-80
2021/04/16 08:00:42;;;;;;;10.98;6.92;;;;;;;5.37;92.50;100352.00;1699410;82;26357;-77
2021/04/16 08:03:25;;;;;;;12.78;7.17;;;;;;;5.36;92.46;100350.86;1702744;82;25658;-77
2021/04/16 08:05:56;;;;;;;16.05;7.60;;;;;;;5.36;92.41;100350.38;1758345;78;25947;-79
2021/04/16 08:08:32;;;;;;;11.15;6.67;;;;;;;5.38;92.59;100358.84;1786862;78;25350;-78
2021/04/16 08:11:09;;;;;;;12.90;6.53;;;;;;;5.37;92.59;100364.15;1786256;78;25906;-84
2021/04/16 08:13:40;;;;;;;10.70;6.65;;;;;;;5.35;92.72;100366.89;1784010;78;25311;-84
2021/04/16 08:16:20;;;;;;;12.20;7.00;;;;;;;5.33;92.70;100368.30;1781532;78;25295;-82
2021/04/16 08:19:00;;;;;;;11.67;6.23;;;;;;;5.34;93.03;100365.23;1785218;78;25886;-84
2021/04/16 08:21:28;;;;;;;9.20;5.87;;;;;;;5.36;93.01;100359.45;1782889;78;25795;-87
2021/04/16 08:24:51;;;;;;;8.85;6.28;;;;;;;5.35;92.87;100360.41;1782288;78;25688;-79
2021/04/16 08:27:43;;;;;;;9.25;6.17;;;;;;;5.36;93.24;100360.74;1786342;78;25602;-83
2021/04/16 08:30:46;;;;;;;9.63;5.35;;;;;;;5.38;93.00;100365.33;1783268;78;25344;-81
2021/04/16 08:33:27;;;;;;;12.18;6.55;;;;;;;5.37;93.21;100362.85;1757009;79;27457;-83
2021/04/16 08:36:13;;;;;;;14.35;9.65;;;;;;;5.35;93.16;100366.89;1780691;78;25621;-81
2021/04/16 08:38:48;;;;;;;9.55;6.30;;;;;;;5.31;93.10;100357.72;1781759;78;25393;-81
2021/04/16 08:41:14;;;;;;;11.08;6.78;;;;;;;5.31;93.33;100359.02;1781517;78;25944;-84
2021/04/16 08:43:50;;;;;;;8.70;6.20;;;;;;;5.28;93.34;100357.98;1788200;78;25283;-84
2021/04/16 08:46:36;;;;;;;9.10;5.80;;;;;;;5.31;93.38;100356.42;1736495;80;25856;-82
2021/04/16 08:49:20;;;;;;;8.33;5.53;;;;;;;5.33;93.32;100357.12;1783088;78;25591;-82
2021/04/16 08:51:51;;;;;;;11.10;6.80;;;;;;;5.36;93.61;100356.04;1785613;78;25285;-82
2021/04/16 08:54:28;;;;;;;9.98;6.83;;;;;;;5.34;93.35;100358.75;1786414;78;25859;-81
2021/04/16 08:57:24;;;;;;;14.65;7.22;;;;;;;5.36;93.56;100350.38;1760151;78;25413;-82
2021/04/16 09:00:17;;;;;;;11.65;6.03;;;;;;;5.36;93.39;100351.67;1784799;78;25721;-84
2021/04/16 09:02:53;;;;;;;10.23;5.92;;;;;;;5.36;93.31;100351.67;1786386;78;25360;-85
2021/04/16 09:05:31;;;;;;;9.48;7.00;;;;;;;5.36;93.48;100356.86;1786950;78;26539;-84
2021/04/16 09:08:08;;;;;;;10.85;6.95;;;;;;;5.35;93.37;100359.11;1678334;83;25435;-84
2021/04/16 09:10:42;;;;;;;11.30;7.12;;;;;;;5.39;93.33;100359.66;1675900;84;25831;-84
2021/04/16 09:13:31;;;;;;;13.30;7.65;;;;;;;5.39;93.14;100357.88;1675021;84;26240;-82
2021/04/16 09:16:18;;;;;;;13.93;7.33;;;;;;;5.41;93.28;100364.25;1677078;84;25834;-80
2021/04/16 09:18:54;;;;;;;14.07;7.78;;;;;;;5.44;93.21;100362.68;1681247;84;26383;-82
2021/04/16 09:21:27;;;;;;;13.15;7.42;;;;;;;5.48;93.25;100361.45;1674620;84;26380;-81
2021/04/16 09:24:10;;;;;;;14.20;6.97;;;;;;;5.49;93.14;100360.52;1658034;84;26041;-82
2021/04/16 09:26:52;;;;;;;13.38;7.08;;;;;;;5.52;92.98;100364.95;1674188;84;25926;-79
2021/04/16 09:29:33;;;;;;;15.00;8.05;;;;;;;5.52;93.10;100361.55;1674843;84;25955;-79
2021/04/16 09:32:02;;;;;;;9.15;6.75;;;;;;;5.57;93.11;100364.56;1681318;84;26338;-80
2021/04/16 09:34:49;;;;;;;12.93;8.05;;;;;;;5.62;93.12;100358.52;1678036;84;25793;-83
2021/04/16 09:37:35;;;;;;;11.28;7.30;;;;;;;5.66;92.91;100351.28;1679249;84;25406;-83
2021/04/16 09:40:25;;;;;;;10.98;6.40;;;;;;;5.72;92.84;100354.63;1617277;87;25684;-85
2021/04/16 09:43:11;;;;;;;14.75;7.20;;;;;;;5.76;92.67;100354.72;1616370;87;25559;-83
2021/04/16 09:45:45;;;;;;;10.48;5.80;;;;;;;5.75;92.42;100353.88;1663592;83;25401;-83
2021/04/16 09:48:42;;;;;;;15.53;10.70;;;;;;;5.77;92.17;100357.64;1693718;83;25442;-81
2021/04/16 09:51:13;;;;;;;13.60;7.45;;;;;;;5.76;92.12;100360.72;1631222;86;25793;-82
2021/04/16 09:53:39;;;;;;;13.10;6.62;;;;;;;5.77;92.08;100349.37;1657284;85;25727;-78
2021/04/16 09:56:18;;;;;;;10.30;5.90;;;;;;;5.80;91.95;100352.19;1621963;86;25831;-78
2021/04/16 09:58:55;;;;;;;9.78;5.67;;;;;;;5.82;92.04;100350.28;1635658;86;25887;-77
2021/04/16 10:01:25;;;;;;;19.45;8.53;;;;;;;5.85;91.96;100348.71;1633448;86;26120;-78
2021/04/16 10:04:02;;;;;;;12.30;6.87;;;;;;;5.88;91.89;100347.62;1630303;86;25391;-76
2021/04/16 10:06:39;;;;;;;12.40;7.37;;;;;;;5.91;91.89;100347.34;1632349;86;26535;-76
2021/04/16 10:09:21;;;;;;;10.05;6.30;;;;;;;5.93;91.77;100341.11;1635591;86;25492;-76
2021/04/16 10:12:03;;;;;;;9.28;6.00;;;;;;;5.95;91.73;100341.80;1636449;86;25856;-79
2021/04/16 10:14:38;;;;;;;13.85;6.03;;;;;;;6.00;91.73;100338.77;1640709;85;25915;-80
2021/04/16 10:17:18;;;;;;;9.85;6.30;;;;;;;6.05;91.64;100338.37;1677974;82;26016;-79
2021/04/16 10:19:49;;;;;;;11.30;6.50;;;;;;;6.13;91.84;100335.44;1728386;81;25930;-81
2021/04/16 10:22:29;;;;;;;8.80;5.33;;;;;;;6.18;91.58;100338.45;1727831;81;25393;-78
2021/04/16 10:26:05;;;;;;;11.95;5.90;;;;;;;6.22;91.29;100339.02;1729722;81;25584;-80
2021/04/16 12:38:57;;;;;;;12.60;8.08;;;;;;;6.23;92.30;100367.89;1780613;78;25753;-77
2021/04/16 12:41:26;;;;;;;13.45;10.08;;;;;;;6.27;92.44;100368.42;1775890;78;25722;-79
2021/04/16 12:43:53;;;;;;;19.73;13.00;;;;;;;6.28;92.35;100370.08;1776176;78;25743;-80
2021/04/16 12:46:25;;;;;;;13.18;8.65;;;;;;;6.27;92.29;100357.56;1780593;78;25842;-79
2021/04/16 12:48:51;;;;;;;16.37;11.57;;;;;;;6.30;92.31;100370.29;1749809;78;25735;-77
2021/04/16 12:51:18;;;;;;;15.65;9.35;;;;;;;6.30;92.32;100367.70;1778039;78;25553;-76
2021/04/16 12:53:44;;;;;;;15.25;10.78;;;;;;;6.26;92.29;100370.69;1746920;78;25816;-77
2021/04/16 12:56:15;;;;;;;15.13;9.58;;;;;;;6.25;92.33;100367.73;1777013;78;25329;-76
2021/04/16 12:58:44;;;;;;;16.07;9.90;;;;;;;6.27;92.55;100359.34;1775213;78;25361;-77
2021/04/16 13:01:27;;;;;;;16.48;11.12;;;;;;;6.23;92.37;100360.91;1775258;78;25822;-75
2021/04/16 13:03:53;;;;;;;18.55;11.88;;;;;;;6.22;92.46;100365.78;1774472;78;25638;-80
2021/04/16 13:06:24;;;;;;;16.95;10.58;;;;;;;6.21;92.56;100363.30;1747753;78;27581;-77
2021/04/16 13:08:50;;;;;;;15.43;10.15;;;;;;;6.21;92.62;100366.71;1750851;78;25607;-75
2021/04/16 13:11:17;;;;;;;13.30;9.55;;;;;;;6.21;92.68;100362.82;1778504;78;25939;-79
2021/04/16 13:13:43;;;;;;;10.93;8.23;;;;;;;6.21;92.92;100365.90;1777263;78;25806;-77
2021/04/16 13:16:09;;;;;;;11.40;7.40;;;;;;;6.23;92.91;100368.70;1781970;79;25735;-78
2021/04/16 13:18:40;;;;;;;12.88;8.85;;;;;;;6.23;93.05;100366.59;1748222;79;26045;-76
2021/04/16 13:21:17;;;;;;;11.12;7.45;;;;;;;6.25;92.97;100364.69;1787338;79;26221;-79
2021/04/16 13:23:43;;;;;;;10.88;7.20;;;;;;;6.29;93.09;100363.44;1759688;79;25379;-75
2021/04/16 13:26:09;;;;;;;12.80;6.58;;;;;;;6.33;93.19;100364.82;1785304;79;25912;-75
2021/04/16 13:28:35;;;;;;;16.23;7.47;;;;;;;6.34;92.98;100358.66;1787198;79;25785;-76
2021/04/16 13:31:02;;;;;;;11.77;7.37;;;;;;;6.38;92.90;100358.74;1786212;79;25575;-76
2021/04/16 13:33:32;;;;;;;11.68;8.03;;;;;;;6.39;92.90;100357.77;1785108;79;25342;-77
2021/04/16 13:35:58;;;;;;;12.68;8.28;;;;;;;6.41;93.02;100363.66;1785895;78;25698;-76
2021/04/16 13:38:28;;;;;;;10.37;6.87;;;;;;;6.40;92.80;100361.18;1794212;78;26262;-75
2021/04/16 13:40:56;;;;;;;10.32;6.65;;;;;;;6.37;92.88;100363.57;1788740;78;25788;-76
2021/04/16 13:43:23;;;;;;;10.98;7.12;;;;;;;6.32;92.83;100366.24;1786632;78;25936;-76
2021/04/16 13:45:50;;;;;;;9.48;5.90;;;;;;;6.30;92.75;100361.20;1788088;78;25723;-77
2021/04/16 13:48:17;;;;;;;9.50;6.50;;;;;;;6.30;92.80;100365.55;1787506;80;25849;-76
2021/04/16 13:50:43;;;;;;;10.13;6.97;;;;;;;6.25;92.73;100368.58;1779293;78;25820;-75
2021/04/16 13:53:12;;;;;;;15.18;7.85;;;;;;;6.19;92.50;100376.44;1785878;78;25803;-76
2021/04/16 13:55:38;;;;;;;10.18;6.67;;;;;;;6.14;92.41;100369.53;1786301;78;25802;-79
2021/04/16 13:58:05;;;;;;;11.30;7.58;;;;;;;6.12;92.46;100374.52;1786040;78;25709;-78
2021/04/16 14:00:34;;;;;;;9.50;6.12;;;;;;;6.12;92.77;100373.22;1786530;78;25568;-75